createdAt,value
2022-08-26T00:00:48.540Z,89.43
2022-08-26T00:03:15.485Z,89.12
2022-08-26T00:05:43.441Z,88.99
2022-08-26T00:08:10.415Z,88.96
2022-08-26T00:10:40.397Z,89.06
2022-08-26T00:13:07.394Z,89.23
2022-08-26T00:15:35.196Z,89.00
2022-08-26T00:18:01.674Z,88.70
2022-08-26T00:20:29.684Z,89.14
2022-08-26T00:22:57.321Z,89.18
2022-08-26T00:25:24.330Z,89.49
2022-08-26T00:27:50.818Z,89.70
2022-08-26T00:30:24.254Z,89.63
2022-08-26T00:32:53.068Z,90.15
2022-08-26T00:35:20.066Z,90.24
2022-08-26T00:37:46.875Z,89.91
2022-08-26T00:40:15.679Z,90.37
2022-08-26T00:42:46.095Z,89.90
2022-08-26T00:45:13.752Z,90.24
2022-08-26T00:47:43.928Z,90.20
2022-08-26T00:50:12.558Z,90.24
2022-08-26T00:52:39.673Z,90.41
2022-08-26T00:55:20.366Z,90.08
2022-08-26T00:57:48.589Z,89.31
2022-08-26T01:00:20.589Z,90.31
2022-08-26T01:02:48.278Z,89.07
2022-08-26T01:05:16.318Z,89.03
2022-08-26T01:07:42.712Z,89.15
2022-08-26T01:10:11.329Z,89.74
2022-08-26T01:12:40.978Z,89.82
2022-08-26T01:15:10.063Z,88.95
2022-08-26T01:17:38.351Z,88.18
2022-08-26T01:20:40.236Z,88.83
2022-08-26T01:23:08.706Z,88.22
2022-08-26T01:25:38.589Z,88.73
2022-08-26T01:28:09.007Z,88.21
2022-08-26T01:30:38.537Z,89.16
2022-08-26T01:33:06.908Z,88.54
2022-08-26T01:35:33.418Z,87.83
2022-08-26T01:38:02.160Z,88.56
2022-08-26T01:40:32.003Z,89.91
2022-08-26T01:42:59.787Z,89.12
2022-08-26T01:45:28.334Z,88.94
2022-08-26T01:47:57.363Z,90.54
2022-08-26T01:50:30.317Z,90.59
2022-08-26T01:52:58.494Z,90.02
2022-08-26T01:55:32.884Z,90.33
2022-08-26T01:58:02.242Z,90.01
2022-08-26T02:00:29.234Z,90.16
2022-08-26T02:03:16.614Z,91.18
2022-08-26T02:05:48.930Z,90.90
2022-08-26T02:08:20.593Z,91.30
2022-08-26T02:10:54.806Z,91.00
2022-08-26T02:13:21.712Z,91.29
2022-08-26T02:15:49.293Z,91.11
2022-08-26T02:18:16.955Z,90.99
2022-08-26T02:20:43.933Z,91.60
2022-08-26T02:23:10.357Z,90.69
2022-08-26T02:25:55.466Z,91.52
2022-08-26T02:28:21.876Z,90.77
2022-08-26T02:30:55.440Z,90.86
2022-08-26T02:33:22.077Z,90.21
2022-08-26T02:35:48.696Z,91.69
2022-08-26T02:38:15.879Z,91.47
2022-08-26T02:40:43.852Z,91.31
2022-08-26T02:43:10.630Z,91.94
2022-08-26T02:45:37.164Z,91.63
2022-08-26T02:48:09.088Z,91.68
2022-08-26T02:50:36.787Z,90.91
2022-08-26T02:53:03.331Z,90.06
2022-08-26T02:55:30.173Z,91.04
2022-08-26T02:57:56.624Z,90.84
2022-08-26T03:00:23.818Z,90.03
2022-08-26T03:02:50.307Z,89.99
2022-08-26T03:05:17.891Z,89.55
2022-08-26T03:07:44.250Z,89.30
2022-08-26T03:10:13.130Z,89.44
2022-08-26T03:12:41.249Z,89.58
2022-08-26T03:15:16.476Z,88.79
2022-08-26T03:17:45.022Z,89.68
2022-08-26T03:20:11.453Z,89.26
2022-08-26T03:22:40.172Z,88.52
2022-08-26T03:25:08.924Z,88.37
2022-08-26T03:27:35.279Z,89.08
2022-08-26T03:30:20.387Z,87.98
2022-08-26T03:32:46.724Z,88.20
2022-08-26T03:35:13.126Z,88.01
2022-08-26T03:37:40.351Z,88.82
2022-08-26T03:40:09.021Z,89.36
2022-08-26T03:42:36.825Z,88.78
2022-08-26T03:45:03.999Z,88.74
2022-08-26T03:47:31.190Z,88.58
2022-08-26T03:49:57.774Z,88.33
2022-08-26T03:52:24.213Z,88.17
2022-08-26T03:54:51.985Z,89.74
2022-08-26T03:57:18.393Z,89.89
2022-08-26T03:59:45.702Z,88.38
2022-08-26T04:02:12.077Z,88.25
2022-08-26T04:04:38.422Z,88.38
2022-08-26T04:07:05.099Z,88.46
2022-08-26T04:09:31.724Z,88.59
2022-08-26T04:12:03.526Z,88.43
2022-08-26T04:14:31.069Z,88.85
2022-08-26T04:16:58.647Z,88.85
2022-08-26T04:19:25.674Z,89.00
2022-08-26T04:21:53.063Z,88.52
2022-08-26T04:24:20.915Z,89.17
2022-08-26T04:26:47.899Z,88.82
2022-08-26T04:29:15.728Z,89.58
2022-08-26T04:31:42.368Z,88.87
2022-08-26T04:34:10.877Z,88.65
2022-08-26T04:36:38.000Z,88.36
2022-08-26T04:39:05.287Z,88.36
2022-08-26T04:41:32.027Z,88.81
2022-08-26T04:43:58.366Z,89.32
2022-08-26T04:46:25.425Z,88.73
2022-08-26T04:48:53.036Z,88.63
2022-08-26T04:51:20.475Z,89.08
2022-08-26T04:53:46.951Z,88.58
2022-08-26T04:56:13.758Z,88.84
2022-08-26T04:58:41.145Z,88.65
2022-08-26T05:01:08.238Z,88.82
2022-08-26T05:03:35.357Z,88.58
2022-08-26T05:06:05.560Z,88.95
2022-08-26T05:08:32.026Z,89.72
2022-08-26T05:10:58.876Z,89.32
2022-08-26T05:13:27.591Z,88.83
2022-08-26T05:15:54.596Z,90.44
2022-08-26T05:18:27.490Z,90.17
2022-08-26T05:20:54.673Z,89.96
2022-08-26T05:23:22.688Z,90.99
2022-08-26T05:25:50.088Z,90.85
2022-08-26T05:28:18.098Z,90.20
2022-08-26T05:30:45.013Z,90.79
2022-08-26T05:33:12.125Z,91.05
2022-08-26T05:35:39.138Z,91.40
2022-08-26T05:38:12.485Z,90.34
2022-08-26T05:40:41.310Z,89.85
2022-08-26T05:43:10.406Z,90.85
2022-08-26T05:45:46.205Z,90.92
2022-08-26T05:48:13.359Z,91.44
2022-08-26T05:50:47.777Z,90.80
2022-08-26T05:53:15.301Z,90.49
2022-08-26T05:55:44.975Z,91.03
2022-08-26T05:58:11.965Z,92.29
2022-08-26T06:00:39.008Z,92.21
2022-08-26T06:03:11.207Z,91.15
2022-08-26T06:05:41.697Z,91.35
2022-08-26T06:08:11.515Z,91.97
2022-08-26T06:11:07.254Z,91.42
2022-08-26T06:13:34.932Z,92.14
2022-08-26T06:16:03.872Z,91.49
2022-08-26T06:18:34.861Z,92.03
2022-08-26T06:21:19.107Z,92.13
2022-08-26T06:24:05.151Z,91.42
2022-08-26T06:26:32.189Z,92.17
2022-08-26T06:28:58.983Z,92.96
2022-08-26T06:31:26.172Z,92.82
2022-08-26T06:33:53.806Z,92.82
2022-08-26T06:36:25.395Z,93.25
2022-08-26T06:38:52.716Z,93.18
2022-08-26T06:41:21.090Z,93.69
2022-08-26T06:43:49.559Z,93.16
2022-08-26T06:46:17.293Z,92.46
2022-08-26T06:48:44.482Z,93.06
2022-08-26T06:51:13.245Z,92.15
2022-08-26T06:53:41.204Z,91.77
2022-08-26T06:56:09.361Z,92.25
2022-08-26T06:58:37.424Z,93.55
2022-08-26T07:01:11.279Z,92.45
2022-08-26T07:03:39.769Z,92.29
2022-08-26T07:06:06.563Z,92.33
2022-08-26T07:08:33.693Z,91.95
2022-08-26T07:11:04.417Z,93.14
2022-08-26T07:13:31.299Z,92.93
2022-08-26T07:15:58.016Z,93.27
2022-08-26T07:18:29.354Z,92.72
2022-08-26T07:20:55.743Z,91.92
2022-08-26T07:23:22.907Z,91.30
2022-08-26T07:25:49.698Z,91.80
2022-08-26T07:28:16.146Z,91.10
2022-08-26T07:30:43.833Z,91.15
2022-08-26T07:33:10.288Z,91.04
2022-08-26T07:35:37.625Z,90.88
2022-08-26T07:38:04.302Z,92.05
2022-08-26T07:40:31.939Z,91.84
2022-08-26T07:42:58.412Z,92.35
2022-08-26T07:45:28.542Z,91.67
2022-08-26T07:47:54.980Z,91.09
2022-08-26T07:50:22.552Z,91.18
2022-08-26T07:53:10.803Z,91.03
2022-08-26T07:55:37.431Z,91.17
2022-08-26T07:58:05.491Z,91.02
2022-08-26T08:00:32.971Z,91.17
2022-08-26T08:03:00.234Z,91.13
2022-08-26T08:05:33.417Z,90.76
2022-08-26T08:08:21.860Z,91.00
2022-08-26T08:10:48.907Z,90.73
2022-08-26T08:13:15.688Z,91.28
2022-08-26T08:15:42.255Z,90.15
2022-08-26T08:18:15.346Z,90.92
2022-08-26T08:20:44.777Z,90.61
2022-08-26T08:23:20.778Z,91.45
2022-08-26T08:25:49.111Z,90.87
2022-08-26T08:28:15.692Z,89.37
2022-08-26T08:30:42.339Z,90.20
2022-08-26T08:33:08.796Z,89.69
2022-08-26T08:35:37.069Z,89.61
2022-08-26T08:38:04.341Z,88.97
2022-08-26T08:40:31.303Z,88.42
2022-08-26T08:42:57.745Z,88.70
2022-08-26T08:45:24.063Z,88.86
2022-08-26T08:47:54.082Z,89.21
2022-08-26T08:50:21.215Z,88.65
2022-08-26T08:52:51.864Z,89.73
2022-08-26T08:55:18.632Z,88.74
2022-08-26T08:57:45.076Z,88.80
2022-08-26T09:00:16.860Z,88.46
2022-08-26T09:02:50.836Z,87.93
2022-08-26T09:05:24.938Z,87.52
2022-08-26T09:07:57.743Z,88.20
2022-08-26T09:10:30.685Z,87.36
2022-08-26T09:12:57.223Z,86.84
2022-08-26T09:15:28.685Z,86.98
2022-08-26T09:18:05.739Z,87.94
2022-08-26T09:20:45.416Z,89.13
2022-08-26T09:23:12.035Z,89.14
2022-08-26T09:28:25.352Z,87.87
2022-08-26T09:31:01.357Z,89.96
2022-08-26T09:33:29.696Z,90.32
2022-08-26T09:36:12.315Z,90.56
2022-08-26T09:38:38.713Z,89.51
2022-08-26T09:41:08.255Z,89.13
2022-08-26T09:43:35.270Z,88.06
2022-08-26T09:46:22.535Z,89.33
2022-08-26T09:48:53.135Z,88.48
2022-08-26T09:51:19.692Z,87.14
2022-08-26T09:53:51.814Z,87.54
2022-08-26T09:56:25.740Z,86.94
2022-08-26T09:58:54.349Z,86.92
2022-08-26T10:01:23.498Z,86.48
2022-08-26T10:03:50.566Z,85.67
2022-08-26T10:06:16.947Z,84.88
2022-08-26T10:08:47.658Z,83.81
2022-08-26T10:11:17.229Z,84.37
2022-08-26T10:13:46.409Z,84.53
2022-08-26T10:16:23.810Z,83.73
2022-08-26T10:19:09.645Z,84.71
2022-08-26T10:21:44.559Z,85.55
2022-08-26T10:24:15.143Z,85.26
2022-08-26T10:26:59.470Z,85.67
2022-08-26T10:29:29.580Z,86.32
2022-08-26T10:32:03.745Z,86.68
2022-08-26T10:34:31.939Z,87.41
2022-08-26T10:37:15.835Z,87.10
2022-08-26T10:39:59.024Z,87.14
2022-08-26T10:42:37.641Z,87.13
2022-08-26T10:45:07.593Z,80.20
2022-08-26T10:47:44.850Z,79.35
2022-08-26T10:50:11.376Z,77.99
2022-08-26T10:52:57.600Z,78.55
2022-08-26T10:55:34.998Z,78.28
2022-08-26T10:58:11.570Z,78.81
2022-08-26T11:01:10.080Z,78.21
2022-08-26T11:03:57.914Z,76.72
2022-08-26T11:06:27.929Z,77.97
2022-08-26T11:08:56.719Z,84.23
2022-08-26T11:11:41.629Z,81.07
2022-08-26T12:18:10.251Z,89.58
2022-08-26T12:20:54.290Z,90.80
2022-08-26T12:23:22.319Z,89.72
2022-08-26T12:25:52.709Z,89.96
2022-08-26T12:28:19.667Z,91.36
2022-08-26T12:31:03.155Z,91.08
2022-08-26T12:33:30.227Z,91.89
2022-08-26T12:35:57.420Z,92.87
2022-08-26T12:38:25.517Z,92.81
2022-08-26T12:40:52.517Z,92.46
2022-08-26T12:43:38.532Z,93.60
2022-08-26T12:46:06.653Z,92.40
2022-08-26T12:48:36.001Z,93.36
2022-08-26T12:51:03.123Z,94.34
2022-08-26T12:53:32.037Z,92.35
2022-08-26T12:56:00.293Z,91.96
2022-08-26T12:58:39.818Z,90.63
2022-08-26T13:01:09.293Z,91.44
2022-08-26T13:03:40.228Z,92.00
2022-08-26T13:06:29.777Z,92.57
2022-08-26T13:09:19.485Z,92.81
2022-08-26T13:11:45.929Z,92.95
2022-08-26T13:14:23.860Z,93.03
2022-08-26T13:16:51.429Z,91.96
2022-08-26T13:19:23.044Z,91.19
2022-08-26T13:21:50.697Z,89.16
2022-08-26T13:24:21.586Z,88.88
2022-08-26T13:26:49.140Z,88.59
2022-08-26T13:29:16.104Z,88.93
2022-08-26T13:31:44.344Z,88.69
2022-08-26T13:34:12.672Z,89.54
2022-08-26T13:36:39.173Z,88.60
2022-08-26T13:39:06.209Z,88.26
2022-08-26T13:41:33.075Z,89.13
2022-08-26T13:43:59.826Z,90.79
2022-08-26T13:46:26.897Z,90.28
2022-08-26T13:48:54.771Z,90.40
2022-08-26T13:51:22.582Z,90.23
2022-08-26T13:53:50.144Z,91.12
2022-08-26T13:56:16.586Z,92.16
2022-08-26T13:58:43.006Z,92.63
2022-08-26T14:01:12.607Z,92.53
2022-08-26T14:03:39.128Z,92.99
2022-08-26T14:06:05.580Z,94.14
2022-08-26T14:08:32.644Z,95.11
2022-08-26T14:10:59.223Z,95.25
2022-08-26T14:13:25.722Z,94.00
2022-08-26T14:15:52.765Z,93.35
2022-08-26T14:18:21.380Z,94.01
2022-08-26T14:20:50.593Z,93.72
2022-08-26T14:23:19.053Z,94.08
2022-08-26T14:25:45.501Z,94.96
2022-08-26T14:28:12.040Z,94.98
2022-08-26T14:30:42.326Z,96.13
2022-08-26T14:33:11.088Z,95.16
2022-08-26T14:35:37.649Z,95.66
2022-08-26T14:38:04.198Z,96.59
2022-08-26T14:40:31.400Z,95.63
2022-08-26T14:43:00.741Z,96.64
2022-08-26T14:45:30.677Z,95.92
2022-08-26T14:47:57.246Z,95.67
2022-08-26T14:50:25.353Z,95.15
2022-08-26T14:53:11.620Z,95.60
2022-08-26T14:55:40.494Z,94.87
2022-08-26T14:58:07.021Z,95.20
2022-08-26T15:00:33.552Z,94.26
2022-08-26T15:03:00.278Z,94.09
2022-08-26T15:05:27.019Z,94.12
2022-08-26T15:07:53.945Z,93.81
2022-08-26T15:10:20.458Z,92.63
2022-08-26T15:12:47.236Z,96.22
2022-08-26T15:15:15.212Z,96.46
2022-08-26T15:17:41.887Z,96.01
2022-08-26T15:20:09.347Z,96.08
2022-08-26T15:22:36.225Z,96.08
2022-08-26T15:25:02.804Z,95.87
2022-08-26T15:27:29.243Z,96.63
2022-08-26T15:29:55.695Z,95.40
2022-08-26T15:32:22.162Z,96.28
2022-08-26T15:34:49.981Z,95.71
2022-08-26T15:37:16.983Z,94.79
2022-08-26T15:39:44.119Z,95.24
2022-08-26T15:42:11.578Z,95.01
2022-08-26T15:44:42.480Z,94.62
2022-08-26T15:47:08.922Z,95.27
2022-08-26T15:49:35.356Z,95.23
2022-08-26T15:52:05.169Z,94.73
2022-08-26T15:54:32.567Z,93.60
2022-08-26T15:57:02.348Z,93.43
2022-08-26T15:59:31.091Z,93.07
2022-08-26T16:01:59.126Z,94.65
2022-08-26T16:04:25.990Z,94.96
2022-08-26T16:06:53.160Z,95.52
2022-08-26T16:09:22.884Z,95.06
2022-08-26T16:11:50.473Z,95.53
2022-08-26T16:14:17.022Z,95.38
2022-08-26T16:16:43.452Z,94.85
2022-08-26T16:19:10.067Z,94.95
2022-08-26T16:21:36.476Z,94.48
2022-08-26T16:24:03.490Z,94.32
2022-08-26T16:26:32.870Z,94.13
2022-08-26T16:29:01.343Z,94.48
2022-08-26T16:31:27.817Z,94.06
2022-08-26T16:33:54.271Z,94.36
2022-08-26T16:36:20.671Z,93.37
2022-08-26T16:38:50.050Z,93.54
2022-08-26T16:41:17.641Z,93.06
2022-08-26T16:43:44.140Z,93.47
2022-08-26T16:46:11.372Z,93.47
2022-08-26T16:48:37.888Z,93.32
2022-08-26T16:51:04.372Z,93.04
2022-08-26T16:53:31.474Z,93.12
2022-08-26T16:55:58.168Z,92.98
2022-08-26T16:58:24.605Z,93.62
2022-08-26T17:00:51.073Z,94.05
2022-08-26T17:03:17.495Z,94.36
2022-08-26T17:05:44.559Z,94.59
2022-08-26T17:08:11.934Z,94.93
2022-08-26T17:10:38.741Z,95.31
2022-08-26T17:13:05.697Z,94.21
2022-08-26T17:15:32.422Z,92.99
2022-08-26T17:17:59.044Z,93.95
2022-08-26T17:20:26.034Z,93.70
2022-08-26T17:22:54.167Z,92.71
2022-08-26T17:25:31.620Z,92.71
2022-08-26T17:27:58.385Z,92.69
2022-08-26T17:30:25.887Z,92.12
2022-08-26T17:32:53.786Z,91.30
2022-08-26T17:35:20.335Z,91.23
2022-08-26T17:37:46.919Z,91.08
2022-08-26T17:40:15.544Z,90.33
2022-08-26T17:42:42.316Z,91.61
2022-08-26T17:45:09.647Z,91.56
2022-08-26T17:47:36.158Z,90.19
2022-08-26T17:50:04.805Z,90.39
2022-08-26T17:52:31.201Z,90.51
2022-08-26T17:54:57.692Z,90.32
2022-08-26T17:57:24.623Z,90.04
2022-08-26T17:59:51.020Z,89.49
2022-08-26T18:02:19.351Z,89.95
2022-08-26T18:04:45.754Z,89.55
2022-08-26T18:07:12.204Z,90.46
2022-08-26T18:09:38.910Z,90.35
2022-08-26T18:12:05.435Z,90.19
2022-08-26T18:14:33.520Z,90.02
2022-08-26T18:16:59.962Z,89.56
2022-08-26T18:19:26.483Z,89.81
2022-08-26T18:21:53.020Z,89.26
2022-08-26T18:24:19.577Z,89.41
2022-08-26T18:26:48.228Z,89.87
2022-08-26T18:29:15.858Z,89.89
2022-08-26T18:31:42.409Z,89.02
2022-08-26T18:34:12.771Z,90.05
2022-08-26T18:36:42.504Z,89.78
2022-08-26T18:39:09.545Z,90.08
2022-08-26T18:41:40.554Z,90.13
2022-08-26T18:44:13.310Z,90.56
2022-08-26T18:46:40.354Z,90.08
2022-08-26T18:49:08.006Z,90.53
2022-08-26T18:51:34.716Z,91.65
2022-08-26T18:54:02.947Z,91.63
2022-08-26T18:56:29.476Z,91.75
2022-08-26T18:58:55.908Z,92.99
2022-08-26T19:01:26.723Z,93.12
2022-08-26T19:03:54.292Z,93.34
2022-08-26T19:06:21.701Z,93.36
2022-08-26T19:08:49.821Z,93.94
2022-08-26T19:11:17.175Z,94.02
2022-08-26T19:13:58.324Z,94.43
2022-08-26T19:16:25.897Z,94.41
2022-08-26T19:18:52.776Z,94.10
2022-08-26T19:21:20.111Z,93.71
2022-08-26T19:23:46.533Z,93.55
2022-08-26T19:26:13.079Z,93.18
2022-08-26T19:28:40.819Z,92.88
2022-08-26T19:31:11.134Z,92.51
2022-08-26T19:33:39.466Z,91.79
2022-08-26T19:36:06.614Z,91.83
2022-08-26T19:38:33.341Z,90.65
2022-08-26T19:41:00.045Z,90.55
2022-08-26T19:43:26.485Z,90.83
2022-08-26T19:45:53.048Z,89.97
2022-08-26T19:48:19.552Z,90.01
2022-08-26T19:50:46.403Z,90.94
2022-08-26T19:53:13.034Z,91.71
2022-08-26T19:55:39.697Z,92.09
2022-08-26T19:58:06.431Z,91.52
2022-08-26T20:00:34.501Z,91.02
2022-08-26T20:03:01.046Z,92.30
2022-08-26T20:05:27.819Z,93.15
2022-08-26T20:07:54.221Z,92.61
2022-08-26T20:10:22.150Z,94.16
2022-08-26T20:12:50.772Z,94.49
2022-08-26T20:15:17.525Z,94.95
2022-08-26T20:17:44.273Z,94.20
2022-08-26T20:20:33.186Z,94.93
2022-08-26T20:23:01.370Z,95.05
2022-08-26T20:25:27.895Z,95.69
2022-08-26T20:27:54.333Z,96.31
2022-08-26T20:30:20.895Z,95.05
2022-08-26T20:32:48.377Z,95.21
2022-08-26T20:35:14.988Z,95.81
2022-08-26T20:37:41.934Z,95.30
2022-08-26T20:40:09.490Z,94.62
2022-08-26T20:42:36.069Z,95.89
2022-08-26T20:45:03.212Z,94.83
2022-08-26T20:47:29.829Z,94.41
2022-08-26T20:49:56.374Z,95.22
2022-08-26T20:52:22.894Z,95.33
2022-08-26T20:54:49.268Z,96.56
2022-08-26T20:57:15.837Z,95.43
2022-08-26T20:59:43.525Z,96.38
2022-08-26T21:02:10.111Z,95.98
2022-08-26T21:04:36.653Z,96.08
2022-08-26T21:07:03.099Z,95.16
2022-08-26T21:09:29.679Z,96.23
2022-08-26T21:11:57.196Z,94.55
2022-08-26T21:14:25.865Z,95.02
2022-08-26T21:16:53.097Z,94.50
2022-08-26T21:19:19.655Z,94.54
2022-08-26T21:21:47.661Z,93.72
2022-08-26T21:24:14.416Z,94.31
2022-08-26T21:26:41.101Z,93.69
2022-08-26T21:29:09.921Z,94.54
2022-08-26T21:31:38.432Z,94.71
2022-08-26T21:34:06.517Z,93.88
2022-08-26T21:36:32.956Z,93.44
2022-08-26T21:38:59.899Z,94.60
2022-08-26T21:41:27.227Z,94.01
2022-08-26T21:43:55.769Z,94.31
2022-08-26T21:46:23.468Z,94.17
2022-08-26T21:48:51.688Z,95.05
2022-08-26T21:53:44.461Z,94.68
2022-08-26T21:56:12.165Z,96.05
2022-08-26T21:58:39.104Z,95.97
2022-08-26T22:01:10.233Z,95.94
2022-08-26T22:03:39.306Z,94.86
2022-08-26T22:06:14.938Z,94.87
2022-08-26T22:08:41.434Z,95.93
2022-08-26T22:11:09.464Z,95.93
2022-08-26T22:13:37.973Z,96.51
2022-08-26T22:16:05.112Z,95.81
2022-08-26T22:18:32.069Z,96.33
2022-08-26T22:21:00.759Z,95.48
2022-08-26T22:23:28.064Z,96.25
2022-08-26T22:25:54.642Z,96.50
2022-08-26T22:28:21.675Z,96.58
2022-08-26T22:30:48.764Z,96.94
2022-08-26T22:33:15.969Z,96.67
2022-08-26T22:35:44.619Z,96.48
2022-08-26T22:38:11.241Z,96.72
2022-08-26T22:40:38.226Z,95.94
2022-08-26T22:43:05.289Z,94.65
2022-08-26T22:45:32.251Z,95.60
2022-08-26T22:47:59.571Z,94.84
2022-08-26T22:50:26.439Z,93.35
2022-08-26T22:52:52.919Z,93.01
2022-08-26T22:55:19.313Z,92.43
2022-08-26T22:57:45.843Z,92.34
2022-08-26T23:00:13.902Z,92.20
2022-08-26T23:02:41.244Z,92.46
2022-08-26T23:05:08.615Z,93.39
2022-08-26T23:07:35.412Z,93.53
2022-08-26T23:10:03.682Z,94.49
2022-08-26T23:12:30.103Z,95.51
2022-08-26T23:14:56.504Z,95.10
2022-08-26T23:17:22.902Z,94.74
2022-08-26T23:19:49.275Z,95.11
2022-08-26T23:22:17.501Z,95.57
2022-08-26T23:24:44.036Z,95.15
2022-08-26T23:27:10.452Z,94.80
2022-08-26T23:29:36.908Z,96.01
2022-08-26T23:32:03.899Z,94.63
2022-08-26T23:34:48.912Z,94.81
2022-08-26T23:37:15.696Z,93.92
2022-08-26T23:39:42.121Z,93.51
2022-08-26T23:42:08.605Z,93.02
2022-08-26T23:44:34.993Z,93.19
2022-08-26T23:47:01.840Z,93.98
2022-08-26T23:49:28.928Z,95.42
2022-08-26T23:52:14.055Z,96.04
2022-08-26T23:54:40.843Z,95.92
2022-08-26T23:57:07.875Z,95.14
2022-08-26T23:59:34.292Z,94.44
